Change the Weather History Date:

Friday, April 5, 2013

  Actual Average (KEKA) Record (KEKA)
Temperature  
Mean Temperature 54 °F 50 °F  
Max Temperature 59 °F 57 °F 69 °F (1985)
Min Temperature 50 °F 43 °F 31 °F (1895)
Degree Days  
Heating Degree Days 10 15  
Month to date heating degree days 75  
Since 1 July heating degree days 3473  
Cooling Degree Days 0 0  
Month to date cooling degree days 0  
Year to date cooling degree days 0  
Growing Degree Days 4 (Base 50)    
Moisture  
Dew Point 52 °F    
Average Humidity 92    
Maximum Humidity 100    
Minimum Humidity 72    
Precipitation  
Precipitation 0.08 in 0.13 in 2.01 in (1963)
Month to date precipitation 0.69  
Year to date precipitation 18.12  
Since 1 July precipitation 35.17  
Snow  
Snow 0.00 in 0.00 in - ()
Month to date snowfall 0.0  
Since 1 July snowfall 0.2  
Snow Depth -    
Sea Level Pressure  
Sea Level Pressure 30.10 in    
Wind  
Wind Speed 5 mph (SSE)    
Max Wind Speed 17 mph    
Max Gust Speed 21 mph    
Visibility 8 miles    
Events      
T = Trace of Precipitation, MM = Missing Value Source: NWS Daily Summary

Daily Weather History Graph

Daily Weather History Graph

Search for Another Location

Airport or City:

Trip Planner

Search our weather history database for the weather conditions in past years. The results will help you decide how hot, cold, wet, or windy it might be!

Date:

Astronomy

Apr. 05, 2013 Rise Set
Actual Time 6:53 AM PDT 7:45 PM PDT
Civil Twilight 6:25 AM PDT 8:13 PM PDT
Nautical Twilight 5:52 AM PDT 8:46 PM PDT
Astronomical Twilight 5:18 AM PDT 9:20 PM PDT
Moon 4:05 AM PDT (4/5) 3:14 PM PDT (4/5)
Length of Visible Light 13h 48m
Length of Day
12h 52m
Waning Crescent, 22% of the Moon is Illuminated
Apr 5
Waning Crescent
Apr 10
New
Apr 18
First Quarter
Apr 25
Full
May 2
Last Quarter

Hourly Weather History & Observations

Time (PDT) Temp. Dew Point Humidity Pressure Visibility Wind Dir Wind Speed Gust Speed Precip Events Conditions
12:15 AM 53.6 °F 53.6 °F 100% 30.07 in 10.0 mi East 5.8 mph - N/A   Overcast
12:35 AM 53.6 °F 53.6 °F 100% 30.08 in 10.0 mi ESE 6.9 mph - N/A   Overcast
12:55 AM 53.6 °F 53.6 °F 100% 30.08 in 4.0 mi Calm Calm - N/A   Overcast
1:15 AM 53.6 °F 53.6 °F 100% 30.08 in 10.0 mi East 5.8 mph - N/A   Overcast
1:35 AM 53.6 °F 53.6 °F 100% 30.08 in 10.0 mi ESE 4.6 mph - N/A   Overcast
1:55 AM 53.6 °F 53.6 °F 100% 30.09 in 9.0 mi Calm Calm - N/A   Overcast
2:15 AM 53.6 °F 53.6 °F 100% 30.09 in 3.0 mi Calm Calm - 0.01 in   Overcast
2:35 AM 51.8 °F 51.8 °F 100% 30.10 in 4.0 mi Calm Calm - 0.03 in   Overcast
2:55 AM 51.8 °F 51.8 °F 100% 30.09 in 10.0 mi Calm Calm - 0.03 in   Mostly Cloudy
3:15 AM 51.8 °F 51.8 °F 100% 30.09 in 10.0 mi Calm Calm - N/A   Overcast
3:35 AM 51.8 °F 51.8 °F 100% 30.10 in 1.0 mi Calm Calm - N/A   Overcast
3:55 AM 50.0 °F 50.0 °F 100% 30.10 in 10.0 mi ESE 5.8 mph - N/A   Overcast
4:15 AM 51.8 °F 51.8 °F 100% 30.10 in 0.5 mi Calm Calm - N/A   Overcast
4:35 AM 51.8 °F 51.8 °F 100% 30.09 in 0.5 mi Calm Calm - N/A   Overcast
4:55 AM 51.8 °F 51.8 °F 100% 30.09 in 10.0 mi Calm Calm - N/A   Overcast
5:15 AM 51.8 °F 51.8 °F 100% 30.09 in 8.0 mi Calm Calm - N/A   Overcast
5:35 AM 51.8 °F 51.8 °F 100% 30.09 in 2.0 mi Calm Calm - N/A   Overcast
5:55 AM 50.0 °F 50.0 °F 100% 30.09 in 10.0 mi Calm Calm - N/A   Overcast
6:15 AM 51.8 °F 51.8 °F 100% 30.09 in 0.8 mi Calm Calm - N/A   Overcast
6:35 AM 50.0 °F 50.0 °F 100% 30.10 in 10.0 mi Calm Calm - N/A   Overcast
6:55 AM 50.0 °F 50.0 °F 100% 30.11 in 7.0 mi Calm Calm - N/A   Overcast
7:15 AM 51.8 °F 51.8 °F 100% 30.11 in 2.5 mi Calm Calm - N/A   Overcast
7:35 AM 51.8 °F 51.8 °F 100% 30.11 in 1.5 mi Calm Calm - 0.01 in   Mostly Cloudy
7:55 AM 51.8 °F 51.8 °F 100% 30.11 in 10.0 mi Calm Calm - 0.01 in   Mostly Cloudy
8:15 AM 53.6 °F 53.6 °F 100% 30.11 in 10.0 mi ESE 5.8 mph - 0.01 in   Overcast
8:35 AM 53.6 °F 53.6 °F 100% 30.11 in 10.0 mi ESE 4.6 mph - 0.01 in   Overcast
8:55 AM 55.4 °F 55.4 °F 100% 30.12 in 10.0 mi SE 8.1 mph - 0.01 in   Overcast
9:15 AM 55.4 °F 55.4 °F 100% 30.12 in 10.0 mi SE 6.9 mph - N/A   Mostly Cloudy
9:35 AM 57.2 °F 55.4 °F 94% 30.12 in 10.0 mi SE 8.1 mph - N/A   Mostly Cloudy
9:55 AM 57.2 °F 55.4 °F 94% 30.12 in 10.0 mi SSE 5.8 mph - N/A   Mostly Cloudy
10:15 AM 55.4 °F 55.4 °F 100% 30.13 in 3.0 mi WSW 8.1 mph - 0.01 in   Overcast
10:35 AM 55.4 °F 55.4 °F 100% 30.14 in 10.0 mi SW 5.8 mph - 0.01 in   Mostly Cloudy
10:55 AM 55.4 °F 55.4 °F 100% 30.14 in 10.0 mi SW 5.8 mph - 0.01 in   Overcast
11:15 AM 55.4 °F 55.4 °F 100% 30.14 in 5.0 mi SSW 6.9 mph - N/A   Overcast
11:35 AM 57.2 °F 53.6 °F 88% 30.14 in 10.0 mi South 8.1 mph - N/A   Mostly Cloudy
11:55 AM 59.0 °F 53.6 °F 82% 30.14 in 10.0 mi SSW 10.4 mph - N/A   Scattered Clouds
12:15 PM 59.0 °F 53.6 °F 82% 30.13 in 10.0 mi SW 15.0 mph - N/A   Partly Cloudy
12:35 PM 59.0 °F 53.6 °F 82% 30.13 in 10.0 mi SSW 10.4 mph - N/A   Partly Cloudy
12:55 PM 59.0 °F 50.0 °F 72% 30.13 in 10.0 mi South 10.4 mph 18.4 mph 0.01 in   Partly Cloudy
1:15 PM 59.0 °F 50.0 °F 72% 30.12 in 10.0 mi SSW 11.5 mph - N/A   Partly Cloudy
1:35 PM 59.0 °F 51.8 °F 77% 30.12 in 10.0 mi SSE 3.5 mph - N/A   Scattered Clouds
1:55 PM 59.0 °F 50.0 °F 72% 30.12 in 5.0 mi South 5.8 mph - N/A   Mostly Cloudy
2:15 PM 57.2 °F 50.0 °F 77% 30.13 in 10.0 mi SW 15.0 mph 20.7 mph N/A   Overcast
2:35 PM 57.2 °F 50.0 °F 77% 30.14 in 10.0 mi South 12.7 mph 19.6 mph N/A   Overcast
2:55 PM 57.2 °F 50.0 °F 77% 30.12 in 10.0 mi SSE 10.4 mph - N/A   Scattered Clouds
3:15 PM 57.2 °F 50.0 °F 77% 30.12 in 10.0 mi South 5.8 mph - N/A   Clear
3:35 PM 57.2 °F 50.0 °F 77% 30.12 in 10.0 mi South 9.2 mph 17.3 mph N/A   Mostly Cloudy
3:55 PM 57.2 °F 50.0 °F 77% 30.11 in 10.0 mi SE 8.1 mph - N/A   Mostly Cloudy
4:15 PM 57.2 °F 51.8 °F 82% 30.08 in 10.0 mi ESE 16.1 mph - N/A   Partly Cloudy
4:35 PM 57.2 °F 51.8 °F 82% 30.09 in 10.0 mi SE 16.1 mph - N/A   Partly Cloudy
4:55 PM 57.2 °F 53.6 °F 88% 30.09 in 10.0 mi ESE 11.5 mph - N/A   Clear
5:15 PM 57.2 °F 51.8 °F 82% 30.10 in 10.0 mi SE 10.4 mph - N/A   Mostly Cloudy
5:35 PM 57.2 °F 51.8 °F 82% 30.10 in 10.0 mi SE 8.1 mph - N/A   Overcast
5:55 PM 57.2 °F 51.8 °F 82% 30.10 in 10.0 mi SSE 8.1 mph - N/A   Overcast
6:15 PM 57.2 °F 51.8 °F 82% 30.10 in 10.0 mi SSE 11.5 mph - N/A   Overcast
6:35 PM 57.2 °F 50.0 °F 77% 30.10 in 10.0 mi SSE 12.7 mph - N/A   Overcast
6:55 PM 55.4 °F 50.0 °F 82% 30.10 in 10.0 mi SSE 5.8 mph - N/A   Overcast
7:15 PM 55.4 °F 50.0 °F 82% 30.09 in 10.0 mi SSE 9.2 mph - N/A   Overcast
7:35 PM 55.4 °F 50.0 °F 82% 30.09 in 10.0 mi SE 11.5 mph - N/A   Overcast
7:55 PM 55.4 °F 50.0 °F 82% 30.09 in 10.0 mi SE 9.2 mph - N/A   Overcast
8:15 PM 55.4 °F 50.0 °F 82% 30.09 in 10.0 mi SE 11.5 mph - N/A   Overcast
8:35 PM 55.4 °F 51.8 °F 88% 30.09 in 10.0 mi SE 9.2 mph - N/A   Overcast
8:55 PM 53.6 °F 51.8 °F 94% 30.10 in 10.0 mi SSE 4.6 mph - N/A   Overcast
9:15 PM 53.6 °F 53.6 °F 100% 30.11 in 7.0 mi ESE 10.4 mph - 0.01 in   Overcast
9:35 PM 53.6 °F 53.6 °F 100% 30.11 in 10.0 mi SE 9.2 mph - 0.01 in   Overcast
9:55 PM 53.6 °F 53.6 °F 100% 30.11 in 10.0 mi SE 11.5 mph - 0.01 in   Overcast
10:15 PM 53.6 °F 53.6 °F 100% 30.09 in 10.0 mi SE 17.3 mph - N/A   Overcast
10:35 PM 53.6 °F 53.6 °F 100% 30.10 in 10.0 mi ESE 17.3 mph 20.7 mph N/A   Overcast
10:55 PM 53.6 °F 53.6 °F 100% 30.10 in 10.0 mi SE 12.7 mph - N/A   Overcast
11:15 PM 53.6 °F 53.6 °F 100% 30.09 in 10.0 mi SE 12.7 mph - N/A   Overcast
11:35 PM 53.6 °F 53.6 °F 100% 30.09 in 10.0 mi SE 13.8 mph 19.6 mph N/A   Overcast
11:55 PM 53.6 °F 53.6 °F 100% 30.08 in 10.0 mi SE 13.8 mph - N/A   Overcast